createdAt,value
2019-04-11T00:03:54.187Z,7.80
2019-04-11T00:06:43.497Z,7.70
2019-04-11T00:09:25.280Z,7.60
2019-04-11T00:12:06.634Z,7.60
2019-04-11T00:14:48.383Z,7.40
2019-04-11T00:17:30.050Z,7.40
2019-04-11T00:20:12.834Z,7.30
2019-04-11T00:22:54.146Z,7.30
2019-04-11T00:25:35.907Z,7.10
2019-04-11T00:28:17.409Z,7.10
2019-04-11T00:30:58.840Z,7.00
2019-04-11T00:33:40.457Z,6.80
2019-04-11T00:36:22.204Z,6.80
2019-04-11T00:39:05.838Z,6.70
2019-04-11T00:41:46.785Z,6.60
2019-04-11T00:44:27.468Z,6.50
2019-04-11T00:47:08.927Z,6.40
2019-04-11T00:49:50.485Z,6.40
2019-04-11T00:52:31.754Z,6.30
2019-04-11T00:55:13.403Z,6.20
2019-04-11T00:57:55.032Z,6.20
2019-04-11T01:00:37.078Z,6.10
2019-04-11T01:03:18.626Z,6.10
2019-04-11T01:06:00.069Z,6.00
2019-04-11T01:08:41.961Z,5.90
2019-04-11T01:11:23.798Z,5.90
2019-04-11T01:14:05.601Z,5.80
2019-04-11T01:16:54.907Z,5.80
2019-04-11T01:25:46.834Z,6.00
2019-04-11T01:28:16.490Z,5.90
2019-04-11T01:36:38.000Z,6.00
2019-04-11T01:39:45.777Z,6.00
2019-04-11T01:45:30.091Z,6.10
2019-04-11T01:53:55.374Z,6.20
2019-04-11T01:56:45.402Z,6.20
2019-04-11T01:59:35.424Z,6.20
2019-04-11T02:02:44.391Z,6.20
2019-04-11T02:05:33.214Z,6.20
2019-04-11T02:08:22.942Z,6.20
2019-04-11T02:11:05.372Z,6.20
2019-04-11T02:13:48.093Z,6.20
2019-04-11T02:16:29.632Z,6.20
2019-04-11T02:19:10.553Z,6.10
2019-04-11T02:21:53.805Z,6.10
2019-04-11T02:24:57.910Z,6.00
2019-04-11T02:27:40.175Z,6.00
2019-04-11T02:30:22.800Z,6.00
2019-04-11T02:33:02.419Z,6.00
2019-04-11T02:35:51.841Z,6.10
2019-04-11T02:38:41.541Z,6.10
2019-04-11T02:41:31.838Z,6.00
2019-04-11T02:44:39.527Z,6.00
2019-04-11T02:47:17.420Z,6.00
2019-04-11T02:50:00.898Z,6.00
2019-04-11T02:52:52.071Z,5.90
2019-04-11T02:55:41.728Z,6.00
2019-04-11T02:58:31.884Z,6.00
2019-04-11T03:01:22.033Z,6.00
2019-04-11T03:04:12.888Z,6.00
2019-04-11T03:07:03.827Z,6.00
2019-04-11T03:09:53.585Z,6.00
2019-04-11T03:12:43.630Z,5.90
2019-04-11T03:15:53.619Z,5.90
2019-04-11T03:18:40.882Z,5.90
2019-04-11T03:21:20.013Z,5.90
2019-04-11T03:24:06.157Z,5.90
2019-04-11T03:26:56.377Z,5.90
2019-04-11T03:29:45.298Z,5.90
2019-04-11T03:33:01.250Z,5.90
2019-04-11T03:37:47.999Z,5.90
2019-04-11T03:40:11.493Z,5.90
2019-04-11T03:42:40.107Z,5.80
2019-04-11T03:45:34.841Z,5.90
2019-04-11T03:48:18.162Z,5.90
2019-04-11T03:50:56.698Z,5.90
2019-04-11T03:53:44.971Z,5.80
2019-04-11T03:56:35.062Z,5.80
2019-04-11T03:59:24.972Z,5.80
2019-04-11T04:02:15.335Z,5.80
2019-04-11T04:05:06.636Z,5.70
2019-04-11T04:07:57.224Z,5.70
2019-04-11T04:11:05.901Z,5.80
2019-04-11T04:17:23.635Z,5.80
2019-04-11T04:20:24.700Z,5.80
2019-04-11T04:23:12.086Z,5.90
2019-04-11T04:25:54.464Z,5.90
2019-04-11T04:28:35.813Z,5.90
2019-04-11T04:31:18.539Z,5.80
2019-04-11T04:34:01.848Z,5.80
2019-04-11T04:36:43.504Z,5.70
2019-04-11T04:39:24.918Z,5.70
2019-04-11T04:42:17.397Z,5.70
2019-04-11T04:44:50.970Z,5.70
2019-04-11T04:47:39.505Z,5.70
2019-04-11T04:50:15.466Z,5.70
2019-04-11T04:52:55.959Z,5.80
2019-04-11T04:55:45.759Z,5.70
2019-04-11T04:58:35.652Z,5.60
2019-04-11T05:01:24.246Z,5.60
2019-04-11T05:04:13.978Z,5.70
2019-04-11T05:07:03.452Z,5.70
2019-04-11T05:09:54.526Z,5.80
2019-04-11T05:12:36.567Z,5.60
2019-04-11T05:15:18.705Z,5.50
2019-04-11T05:18:01.504Z,5.50
2019-04-11T05:20:44.123Z,5.50
2019-04-11T05:23:25.582Z,5.50
2019-04-11T05:26:06.917Z,5.50
2019-04-11T05:28:48.844Z,5.60
2019-04-11T05:31:30.305Z,5.60
2019-04-11T05:34:11.856Z,5.60
2019-04-11T05:36:53.312Z,5.60
2019-04-11T05:39:34.321Z,5.70
2019-04-11T05:42:18.635Z,5.70
2019-04-11T05:44:57.522Z,5.80
2019-04-11T05:47:39.309Z,5.80
2019-04-11T05:50:29.413Z,5.70
2019-04-11T05:53:10.386Z,5.80
2019-04-11T05:55:45.447Z,5.70
2019-04-11T05:58:32.631Z,5.70
2019-04-11T06:04:28.890Z,5.80
2019-04-11T06:07:27.233Z,5.80
2019-04-11T06:10:24.016Z,5.90
2019-04-11T06:13:24.648Z,5.90
2019-04-11T06:16:08.194Z,5.90
2019-04-11T06:21:35.963Z,6.10
2019-04-11T06:24:36.408Z,6.10
2019-04-11T06:27:28.599Z,6.10
2019-04-11T06:30:32.777Z,6.00
2019-04-11T06:33:27.550Z,6.00
2019-04-11T06:36:30.099Z,6.10
2019-04-11T06:45:39.899Z,6.20
2019-04-11T06:48:40.203Z,6.20
2019-04-11T06:51:26.088Z,6.30
2019-04-11T06:54:26.487Z,6.20
2019-04-11T06:57:11.735Z,6.20
2019-04-11T06:59:53.473Z,6.30
2019-04-11T07:02:38.909Z,6.40
2019-04-11T07:05:20.422Z,6.50
2019-04-11T07:08:02.131Z,6.70
2019-04-11T07:10:53.585Z,6.80
2019-04-11T07:13:43.557Z,7.00
2019-04-11T07:16:25.353Z,7.50
2019-04-11T07:19:26.493Z,8.30
2019-04-11T07:22:27.003Z,8.70
2019-04-11T07:25:27.262Z,8.70
2019-04-11T07:28:14.881Z,8.40
2019-04-11T07:31:15.599Z,8.40
2019-04-11T07:34:24.759Z,7.70
2019-04-11T07:37:32.672Z,7.90
2019-04-11T07:40:41.192Z,7.70
2019-04-11T07:43:50.028Z,7.60
2019-04-11T07:46:58.245Z,7.30
2019-04-11T07:52:49.087Z,7.40
2019-04-11T07:55:38.691Z,7.40
2019-04-11T07:58:33.123Z,7.20
2019-04-11T08:01:40.548Z,7.50
2019-04-11T08:05:07.015Z,7.40
2019-04-11T08:08:15.401Z,7.40
2019-04-11T08:14:16.154Z,7.40
2019-04-11T08:17:07.687Z,7.40
2019-04-11T08:20:08.077Z,7.40
2019-04-11T08:22:55.082Z,7.60
2019-04-11T08:25:45.296Z,7.80
2019-04-11T08:28:35.458Z,7.60
2019-04-11T08:31:44.527Z,7.60
2019-04-11T08:34:39.934Z,7.60
2019-04-11T08:37:29.650Z,7.60
2019-04-11T08:40:19.870Z,7.70
2019-04-11T08:43:12.925Z,7.90
2019-04-11T08:46:10.830Z,7.80
2019-04-11T08:49:03.557Z,7.80
2019-04-11T08:51:53.713Z,7.70
2019-04-11T08:55:02.281Z,7.80
2019-04-11T08:58:12.071Z,8.00
2019-04-11T09:01:03.409Z,8.10
2019-04-11T09:04:13.758Z,8.20
2019-04-11T09:07:03.270Z,8.30
2019-04-11T09:10:11.734Z,8.40
2019-04-11T09:13:19.478Z,8.40
2019-04-11T09:16:21.597Z,8.40
2019-04-11T09:19:08.471Z,8.50
2019-04-11T09:22:08.871Z,8.40
2019-04-11T09:25:12.757Z,8.20
2019-04-11T09:28:07.698Z,8.40
2019-04-11T09:34:14.494Z,8.40
2019-04-11T09:37:22.137Z,8.70
2019-04-11T09:40:32.304Z,9.00
2019-04-11T09:43:24.172Z,9.20
2019-04-11T09:46:32.460Z,9.10
2019-04-11T09:52:45.293Z,9.80
2019-04-11T09:55:53.972Z,10.20
2019-04-11T09:58:43.970Z,10.80
2019-04-11T10:01:52.049Z,10.90
2019-04-11T10:04:41.669Z,10.60
2019-04-11T10:07:50.385Z,10.90
2019-04-11T10:10:57.934Z,10.90
2019-04-11T10:13:59.460Z,10.20
2019-04-11T10:17:00.232Z,10.20
2019-04-11T10:19:44.335Z,9.60
2019-04-11T10:22:44.387Z,10.00
2019-04-11T10:28:46.508Z,10.50
2019-04-11T10:31:28.434Z,11.00
2019-04-11T10:34:29.900Z,11.10
2019-04-11T10:37:14.132Z,11.30
2019-04-11T10:40:03.983Z,12.00
2019-04-11T10:42:46.897Z,12.40
2019-04-11T10:45:38.573Z,12.20
2019-04-11T10:48:32.590Z,12.30
2019-04-11T10:51:24.628Z,13.10
2019-04-11T10:54:07.391Z,12.60
2019-04-11T10:56:56.315Z,12.40
2019-04-11T10:59:28.117Z,13.30
2019-04-11T11:02:06.631Z,13.80
2019-04-11T11:04:40.993Z,14.20
2019-04-11T11:07:32.999Z,15.20
2019-04-11T11:10:40.427Z,15.50
2019-04-11T11:13:48.032Z,16.10
2019-04-11T11:16:41.876Z,16.60
2019-04-11T11:19:50.161Z,15.90
2019-04-11T11:22:40.491Z,15.50
2019-04-11T11:25:48.598Z,17.20
2019-04-11T11:28:30.056Z,18.10
2019-04-11T11:31:30.178Z,17.30
2019-04-11T11:34:17.412Z,16.50
2019-04-11T11:37:22.885Z,16.40
2019-04-11T11:40:27.884Z,15.90
2019-04-11T11:43:19.020Z,15.30
2019-04-11T11:46:25.527Z,15.40
2019-04-11T11:49:10.727Z,16.30
2019-04-11T11:52:11.271Z,16.70
2019-04-11T11:54:55.718Z,14.80
2019-04-11T11:57:42.678Z,14.60
2019-04-11T12:00:27.233Z,14.30
2019-04-11T12:03:29.986Z,14.90
2019-04-11T12:06:10.479Z,15.90
2019-04-11T12:09:12.010Z,16.30
2019-04-11T12:11:58.819Z,15.40
2019-04-11T12:14:59.369Z,15.20
2019-04-11T12:17:59.727Z,13.40
2019-04-11T12:24:06.688Z,12.80
2019-04-11T12:27:14.352Z,13.10
2019-04-11T12:30:23.932Z,13.00
2019-04-11T12:33:31.081Z,12.40
2019-04-11T12:36:23.051Z,12.80
2019-04-11T12:39:30.522Z,12.70
2019-04-11T12:42:22.068Z,12.80
2019-04-11T12:48:29.689Z,12.70
2019-04-11T12:51:37.205Z,12.50
2019-04-11T12:54:29.038Z,11.80
2019-04-11T12:57:36.499Z,11.90
2019-04-11T13:00:44.042Z,11.90
2019-04-11T13:03:51.514Z,11.80
2019-04-11T13:06:58.890Z,11.80
2019-04-11T13:10:06.492Z,12.00
2019-04-11T13:13:14.028Z,12.00
2019-04-11T13:15:46.659Z,12.10
2019-04-11T13:18:46.817Z,11.90
2019-04-11T13:21:49.574Z,12.00
2019-04-11T13:24:49.780Z,12.10
2019-04-11T13:27:35.557Z,11.70
2019-04-11T13:30:36.024Z,11.50
2019-04-11T13:33:23.426Z,11.40
2019-04-11T13:36:23.960Z,11.40
2019-04-11T13:39:06.362Z,11.50
2019-04-11T13:42:00.249Z,11.40
2019-04-11T13:44:42.508Z,11.20
2019-04-11T13:47:45.908Z,11.30
2019-04-11T13:50:27.049Z,11.20
2019-04-11T13:53:27.428Z,11.10
2019-04-11T13:56:09.668Z,11.00
2019-04-11T13:59:09.826Z,11.00
2019-04-11T14:01:52.150Z,10.90
2019-04-11T14:04:38.635Z,10.90
2019-04-11T14:07:21.222Z,11.00
2019-04-11T14:10:02.531Z,10.90
2019-04-11T14:12:43.840Z,11.00
2019-04-11T14:15:25.816Z,11.00
2019-04-11T14:18:25.909Z,11.00
2019-04-11T14:21:14.930Z,10.80
2019-04-11T14:26:44.342Z,10.80
2019-04-11T14:29:47.668Z,10.60
2019-04-11T14:32:30.596Z,10.60
2019-04-11T14:35:30.744Z,10.60
2019-04-11T14:38:16.562Z,10.70
2019-04-11T14:41:16.928Z,10.80
2019-04-11T14:44:02.049Z,10.90
2019-04-11T14:47:12.024Z,11.00
2019-04-11T14:49:59.500Z,11.00
2019-04-11T14:52:52.423Z,11.10
2019-04-11T14:55:43.495Z,10.90
2019-04-11T14:58:53.618Z,10.90
2019-04-11T15:01:44.021Z,11.10
2019-04-11T15:04:33.741Z,11.00
2019-04-11T15:07:22.291Z,10.90
2019-04-11T15:10:29.796Z,11.00
2019-04-11T15:13:03.287Z,11.10
2019-04-11T15:16:11.152Z,11.10
2019-04-11T15:19:02.116Z,11.10
2019-04-11T15:22:04.003Z,11.30
2019-04-11T15:24:46.911Z,11.30
2019-04-11T15:27:47.051Z,11.20
2019-04-11T15:30:29.067Z,11.10
2019-04-11T15:33:28.823Z,11.10
2019-04-11T15:36:10.118Z,11.20
2019-04-11T15:39:10.283Z,11.30
2019-04-11T15:41:55.402Z,11.20
2019-04-11T15:44:55.262Z,11.20
2019-04-11T15:47:38.026Z,11.10
2019-04-11T15:50:37.544Z,10.90
2019-04-11T15:53:25.192Z,11.10
2019-04-11T15:56:25.676Z,11.10
2019-04-11T15:59:19.074Z,11.20
2019-04-11T16:02:24.922Z,11.00
2019-04-11T16:05:25.241Z,10.90
2019-04-11T16:08:27.861Z,10.80
2019-04-11T16:11:34.334Z,10.70
2019-04-11T16:14:34.655Z,10.50
2019-04-11T16:17:37.201Z,10.40
2019-04-11T16:20:22.433Z,10.40
2019-04-11T16:23:25.912Z,10.30
2019-04-11T16:26:07.141Z,10.30
2019-04-11T16:28:59.149Z,10.30
2019-04-11T16:31:41.854Z,10.30
2019-04-11T16:34:31.845Z,10.20
2019-04-11T16:37:12.926Z,10.20
2019-04-11T16:40:20.878Z,10.10
2019-04-11T16:43:05.423Z,10.00
2019-04-11T16:45:54.876Z,10.00
2019-04-11T16:48:45.097Z,9.90
2019-04-11T16:51:37.076Z,9.80
2019-04-11T16:54:25.643Z,9.70
2019-04-11T16:57:14.323Z,9.70
2019-04-11T17:02:58.733Z,9.60
2019-04-11T17:06:06.110Z,9.60
2019-04-11T17:12:08.782Z,9.50
2019-04-11T17:14:57.427Z,9.40
2019-04-11T17:17:38.858Z,9.40
2019-04-11T17:20:20.436Z,9.40
2019-04-11T17:23:01.116Z,9.30
2019-04-11T17:25:41.976Z,9.30
2019-04-11T17:28:23.773Z,9.30
2019-04-11T17:31:05.052Z,9.20
2019-04-11T17:33:46.476Z,9.20
2019-04-11T17:36:28.227Z,9.10
2019-04-11T17:39:09.798Z,9.10
2019-04-11T17:41:51.018Z,9.10
2019-04-11T17:44:31.794Z,9.10
2019-04-11T17:47:13.064Z,8.90
2019-04-11T17:49:54.541Z,8.90
2019-04-11T17:52:36.034Z,8.80
2019-04-11T17:55:17.697Z,8.80
2019-04-11T17:57:59.180Z,8.70
2019-04-11T18:00:43.513Z,8.70
2019-04-11T18:03:24.482Z,8.60
2019-04-11T18:06:06.037Z,8.60
2019-04-11T18:08:50.988Z,8.60
2019-04-11T18:11:30.425Z,8.50
2019-04-11T18:14:12.042Z,8.50
2019-04-11T18:16:53.086Z,8.50
2019-04-11T18:22:32.894Z,8.40
2019-04-11T18:25:05.731Z,8.30
2019-04-11T18:27:54.566Z,8.30
2019-04-11T18:30:43.344Z,8.30
2019-04-11T18:33:32.395Z,8.30
2019-04-11T18:36:23.918Z,8.30
2019-04-11T18:39:12.466Z,8.20
2019-04-11T18:42:01.019Z,8.20
2019-04-11T18:44:49.502Z,8.20
2019-04-11T18:47:38.141Z,8.10
2019-04-11T18:50:28.697Z,8.10
2019-04-11T18:53:19.037Z,8.10
2019-04-11T18:56:07.225Z,8.10
2019-04-11T18:58:55.826Z,8.00
2019-04-11T19:01:44.393Z,8.00
2019-04-11T19:04:33.097Z,8.00
2019-04-11T19:07:27.998Z,7.90
2019-04-11T19:10:14.984Z,7.90
2019-04-11T19:16:04.570Z,7.80
2019-04-11T19:18:47.585Z,7.80
2019-04-11T19:21:28.699Z,7.70
2019-04-11T19:24:12.972Z,7.70
2019-04-11T19:26:53.132Z,7.70
2019-04-11T19:29:34.485Z,7.60
2019-04-11T19:32:15.906Z,7.60
2019-04-11T19:34:57.352Z,7.60
2019-04-11T19:37:41.792Z,7.60
2019-04-11T19:43:25.851Z,7.50
2019-04-11T19:46:14.632Z,7.50
2019-04-11T19:49:05.324Z,7.50
2019-04-11T19:51:53.847Z,7.40
2019-04-11T19:54:42.489Z,7.40
2019-04-11T19:57:31.160Z,7.30
2019-04-11T20:00:21.497Z,7.30
2019-04-11T20:06:13.819Z,7.20
2019-04-11T20:08:49.934Z,7.10
2019-04-11T20:11:38.875Z,7.00
2019-04-11T20:14:27.450Z,7.00
2019-04-11T20:17:18.870Z,6.90
2019-04-11T20:20:07.052Z,6.90
2019-04-11T20:22:59.289Z,6.80
2019-04-11T20:25:49.731Z,6.70
2019-04-11T20:28:37.432Z,6.70
2019-04-11T20:31:25.932Z,6.60
2019-04-11T20:34:21.975Z,6.60
2019-04-11T20:36:56.944Z,6.50
2019-04-11T20:39:40.334Z,6.50
2019-04-11T20:42:23.853Z,6.50
2019-04-11T20:45:04.755Z,6.40
2019-04-11T20:47:46.263Z,6.40
2019-04-11T20:50:26.961Z,6.40
2019-04-11T20:53:13.089Z,6.40
2019-04-11T20:55:51.181Z,6.40
2019-04-11T20:58:32.646Z,6.30
2019-04-11T21:01:14.669Z,6.30
2019-04-11T21:04:00.135Z,6.30
2019-04-11T21:06:39.466Z,6.30
2019-04-11T21:09:26.531Z,6.30
2019-04-11T21:12:08.100Z,6.20
2019-04-11T21:14:48.993Z,6.20
2019-04-11T21:17:30.690Z,6.30
2019-04-11T21:20:11.423Z,6.30
2019-04-11T21:22:59.803Z,6.30
2019-04-11T21:25:37.872Z,6.30
2019-04-11T21:28:27.837Z,6.40
2019-04-11T21:31:17.896Z,6.40
2019-04-11T21:34:06.708Z,6.40
2019-04-11T21:39:51.312Z,6.40
2019-04-11T21:42:40.011Z,6.40
2019-04-11T21:45:28.563Z,6.40
2019-04-11T21:48:17.378Z,6.40
2019-04-11T21:56:42.058Z,6.70
2019-04-11T21:59:30.628Z,6.50
2019-04-11T22:05:33.733Z,6.50
2019-04-11T22:08:34.463Z,6.40
2019-04-11T22:11:12.652Z,6.40
2019-04-11T22:14:01.258Z,6.40
2019-04-11T22:16:49.887Z,6.40
2019-04-11T22:19:38.548Z,6.40
2019-04-11T22:22:19.739Z,6.30
2019-04-11T22:25:00.531Z,6.30
2019-04-11T22:27:42.026Z,6.30
2019-04-11T22:30:28.220Z,6.30
2019-04-11T22:36:17.958Z,6.30
2019-04-11T22:39:01.038Z,6.30
2019-04-11T22:41:42.304Z,6.20
2019-04-11T22:44:23.029Z,6.10
2019-04-11T22:47:07.519Z,6.10
2019-04-11T22:49:47.104Z,6.10
2019-04-11T22:52:28.220Z,6.10
2019-04-11T22:55:11.325Z,6.00
2019-04-11T22:57:52.548Z,6.00
2019-04-11T23:00:33.769Z,5.90
2019-04-11T23:03:19.144Z,6.00
2019-04-11T23:06:00.311Z,6.00
2019-04-11T23:08:41.690Z,6.00
2019-04-11T23:11:22.980Z,5.90
2019-04-11T23:14:04.242Z,5.90
2019-04-11T23:16:45.903Z,5.80
2019-04-11T23:19:27.378Z,5.80
2019-04-11T23:22:09.801Z,5.70
2019-04-11T23:24:40.124Z,5.80
2019-04-11T23:27:09.615Z,5.70
2019-04-11T23:29:39.330Z,5.60
2019-04-11T23:32:08.852Z,5.60
2019-04-11T23:34:38.414Z,5.50
2019-04-11T23:37:07.982Z,5.50
2019-04-11T23:39:37.490Z,5.50
2019-04-11T23:42:06.996Z,5.40
2019-04-11T23:44:36.535Z,5.40
2019-04-11T23:47:06.092Z,5.40
2019-04-11T23:49:35.610Z,5.30
2019-04-11T23:52:05.242Z,5.30
2019-04-11T23:54:34.769Z,5.30
2019-04-11T23:57:04.290Z,5.20
2019-04-11T23:59:33.740Z,5.20
